createdAt,value
2023-04-29T00:00:56.020Z,4.77
2023-04-29T00:03:24.032Z,6.23
2023-04-29T00:05:53.558Z,4.10
2023-04-29T00:08:21.667Z,4.53
2023-04-29T00:10:49.861Z,4.93
2023-04-29T00:13:17.856Z,4.23
2023-04-29T00:15:45.703Z,4.57
2023-04-29T00:18:14.140Z,6.03
2023-04-29T00:20:43.605Z,5.57
2023-04-29T00:23:13.267Z,5.57
2023-04-29T00:25:41.150Z,4.60
2023-04-29T00:28:09.388Z,4.90
2023-04-29T00:30:37.258Z,7.67
2023-04-29T00:33:05.314Z,4.83
2023-04-29T00:35:33.193Z,13.53
2023-04-29T00:38:01.046Z,10.57
2023-04-29T00:40:30.379Z,10.53
2023-04-29T00:42:58.306Z,5.53
2023-04-29T00:45:27.612Z,9.63
2023-04-29T00:47:55.514Z,2.93
2023-04-29T00:50:23.464Z,2.83
2023-04-29T00:52:52.656Z,1.90
2023-04-29T00:55:20.586Z,1.80
2023-04-29T00:57:52.405Z,1.50
2023-04-29T01:00:20.410Z,1.40
2023-04-29T01:02:48.506Z,2.83
2023-04-29T01:05:17.972Z,1.30
2023-04-29T01:07:53.656Z,1.87
2023-04-29T01:10:23.853Z,1.90
2023-04-29T01:12:55.843Z,1.00
2023-04-29T01:15:25.190Z,2.47
2023-04-29T01:18:00.355Z,1.10
2023-04-29T01:20:28.427Z,1.10
2023-04-29T01:22:56.561Z,1.53
2023-04-29T01:25:25.880Z,0.90
2023-04-29T01:27:56.878Z,0.80
2023-04-29T01:30:29.946Z,1.00
2023-04-29T01:33:01.954Z,0.73
2023-04-29T01:35:42.411Z,0.77
2023-04-29T01:38:16.177Z,0.87
2023-04-29T01:40:49.734Z,1.10
2023-04-29T01:43:18.181Z,1.43
2023-04-29T01:45:46.385Z,1.10
2023-04-29T01:48:14.330Z,1.77
2023-04-29T01:50:42.221Z,1.00
2023-04-29T01:53:10.068Z,1.13
2023-04-29T01:55:37.982Z,7.60
2023-04-29T01:58:07.268Z,1.60
2023-04-29T02:00:35.149Z,1.40
2023-04-29T02:03:03.132Z,1.80
2023-04-29T02:05:32.517Z,1.30
2023-04-29T02:08:00.495Z,2.07
2023-04-29T02:10:29.246Z,4.33
2023-04-29T02:12:57.118Z,3.37
2023-04-29T02:15:27.613Z,1.77
2023-04-29T02:17:55.733Z,1.47
2023-04-29T02:20:23.649Z,1.93
2023-04-29T02:22:51.481Z,1.63
2023-04-29T02:25:19.361Z,1.33
2023-04-29T02:27:47.371Z,1.60
2023-04-29T02:30:15.292Z,1.67
2023-04-29T02:32:44.558Z,1.77
2023-04-29T02:35:12.727Z,1.53
2023-04-29T02:37:40.553Z,2.67
2023-04-29T02:40:10.084Z,5.77
2023-04-29T02:42:37.968Z,2.27
2023-04-29T02:45:06.815Z,1.37
2023-04-29T02:47:34.723Z,2.20
2023-04-29T02:50:04.818Z,3.03
2023-04-29T02:52:32.779Z,2.57
2023-04-29T02:55:00.679Z,1.00
2023-04-29T02:57:29.634Z,1.10
2023-04-29T02:59:57.470Z,1.10
2023-04-29T03:02:25.444Z,1.07
2023-04-29T03:04:53.502Z,0.97
2023-04-29T03:07:22.741Z,1.03
2023-04-29T03:09:51.055Z,3.70
2023-04-29T03:12:19.130Z,1.17
2023-04-29T03:14:47.321Z,1.67
2023-04-29T03:17:15.328Z,1.90
2023-04-29T03:19:43.268Z,2.10
2023-04-29T03:22:11.983Z,2.53
2023-04-29T03:24:41.262Z,2.50
2023-04-29T03:27:09.159Z,2.00
2023-04-29T03:29:37.000Z,2.70
2023-04-29T03:32:05.298Z,2.57
2023-04-29T03:34:33.211Z,2.17
2023-04-29T03:37:01.368Z,2.63
2023-04-29T03:39:32.315Z,2.60
2023-04-29T03:42:01.569Z,2.70
2023-04-29T03:44:29.636Z,2.40
2023-04-29T03:46:57.494Z,4.80
2023-04-29T03:49:25.614Z,3.37
2023-04-29T03:51:53.663Z,2.70
2023-04-29T03:54:21.567Z,3.50
2023-04-29T03:56:49.451Z,3.10
2023-04-29T03:59:18.693Z,3.60
2023-04-29T04:01:46.651Z,6.23
2023-04-29T04:04:15.577Z,4.70
2023-04-29T04:06:44.234Z,11.53
2023-04-29T04:09:12.124Z,6.27
2023-04-29T04:11:40.062Z,6.50
2023-04-29T04:14:08.289Z,17.00
2023-04-29T04:16:37.985Z,10.20
2023-04-29T04:19:06.035Z,13.50
2023-04-29T04:21:33.933Z,22.23
2023-04-29T04:24:01.806Z,13.13
2023-04-29T04:26:29.666Z,5.83
2023-04-29T04:28:57.535Z,25.53
2023-04-29T04:31:25.507Z,18.87
2023-04-29T04:33:54.779Z,18.30
2023-04-29T04:36:22.685Z,13.20
2023-04-29T04:38:50.708Z,3.40
2023-04-29T04:41:18.621Z,17.20
2023-04-29T04:43:46.501Z,30.60
2023-04-29T04:46:15.102Z,37.60
2023-04-29T04:48:43.804Z,22.93
2023-04-29T04:51:13.370Z,11.97
2023-04-29T04:53:41.630Z,20.97
2023-04-29T04:56:09.989Z,8.37
2023-04-29T04:58:37.828Z,14.20
2023-04-29T05:01:05.809Z,3.10
2023-04-29T05:03:34.088Z,6.03
2023-04-29T05:06:02.205Z,3.23
2023-04-29T05:08:31.424Z,2.13
2023-04-29T05:10:59.293Z,5.20
2023-04-29T05:13:27.165Z,2.30
2023-04-29T05:15:55.040Z,2.43
2023-04-29T05:18:22.931Z,2.13
2023-04-29T05:20:50.824Z,2.20
2023-04-29T05:23:18.671Z,2.10
2023-04-29T05:25:48.179Z,2.00
2023-04-29T05:28:16.217Z,1.93
2023-04-29T05:30:44.998Z,2.53
2023-04-29T05:33:12.999Z,2.00
2023-04-29T05:35:40.845Z,2.10
2023-04-29T05:38:08.902Z,2.10
2023-04-29T05:40:36.778Z,2.33
2023-04-29T05:43:06.099Z,4.70
2023-04-29T05:45:34.003Z,2.00
2023-04-29T05:48:02.069Z,1.97
2023-04-29T05:50:29.990Z,2.30
2023-04-29T05:52:57.862Z,2.03
2023-04-29T05:55:25.868Z,1.67
2023-04-29T05:57:53.730Z,2.20
2023-04-29T06:00:23.441Z,1.83
2023-04-29T06:02:58.703Z,2.03
2023-04-29T06:05:27.640Z,2.10
2023-04-29T06:07:55.790Z,2.10
2023-04-29T06:10:23.649Z,1.90
2023-04-29T06:12:51.929Z,1.60
2023-04-29T06:15:19.862Z,3.60
2023-04-29T06:17:49.743Z,2.43
2023-04-29T06:20:18.342Z,2.07
2023-04-29T06:22:46.356Z,3.73
2023-04-29T06:25:15.039Z,1.60
2023-04-29T06:27:42.947Z,1.70
2023-04-29T06:30:11.551Z,1.43
2023-04-29T06:32:39.844Z,1.67
2023-04-29T06:35:09.948Z,2.03
2023-04-29T06:37:38.238Z,1.37
2023-04-29T06:40:07.536Z,1.80
2023-04-29T06:42:36.789Z,1.50
2023-04-29T06:45:05.336Z,1.63
2023-04-29T06:47:33.270Z,3.07
2023-04-29T06:50:01.372Z,1.80
2023-04-29T06:52:31.292Z,2.30
2023-04-29T06:54:59.198Z,2.20
2023-04-29T06:57:27.228Z,2.60
2023-04-29T06:59:55.372Z,2.57
2023-04-29T07:02:23.477Z,2.77
2023-04-29T07:04:52.723Z,3.50
2023-04-29T07:07:20.843Z,3.60
2023-04-29T07:09:52.124Z,3.20
2023-04-29T07:12:20.479Z,2.90
2023-04-29T07:14:48.451Z,3.53
2023-04-29T07:17:16.647Z,3.20
2023-04-29T07:19:44.586Z,3.27
2023-04-29T07:22:12.467Z,3.40
2023-04-29T07:24:40.627Z,3.70
2023-04-29T07:27:09.934Z,4.00
2023-04-29T07:29:38.683Z,7.10
2023-04-29T07:32:06.935Z,4.67
2023-04-29T07:34:35.089Z,7.60
2023-04-29T07:37:02.978Z,7.00
2023-04-29T07:39:31.860Z,6.13
2023-04-29T07:42:00.372Z,12.27
2023-04-29T07:44:29.766Z,5.30
2023-04-29T07:46:57.625Z,9.07
2023-04-29T07:49:26.348Z,5.57
2023-04-29T07:51:54.258Z,5.37
2023-04-29T07:54:22.439Z,4.70
2023-04-29T07:56:50.553Z,4.30
2023-04-29T07:59:18.553Z,4.03
2023-04-29T08:01:48.160Z,7.93
2023-04-29T08:04:16.207Z,5.13
2023-04-29T08:06:44.609Z,6.27
2023-04-29T08:09:18.403Z,5.63
2023-04-29T08:11:46.690Z,6.87
2023-04-29T08:14:14.660Z,4.70
2023-04-29T08:16:42.769Z,3.30
2023-04-29T08:19:12.272Z,3.77
2023-04-29T08:21:40.364Z,6.73
2023-04-29T08:24:08.494Z,4.40
2023-04-29T08:26:36.421Z,3.77
2023-04-29T08:29:04.645Z,2.60
2023-04-29T08:31:32.607Z,3.20
2023-04-29T08:34:00.753Z,2.70
2023-04-29T08:36:30.287Z,2.47
2023-04-29T08:38:58.441Z,2.70
2023-04-29T08:41:26.829Z,1.93
2023-04-29T08:43:54.720Z,2.43
2023-04-29T08:46:22.772Z,2.03
2023-04-29T08:48:51.165Z,1.97
2023-04-29T08:51:19.086Z,1.90
2023-04-29T08:53:48.454Z,2.10
2023-04-29T08:56:20.520Z,1.63
2023-04-29T08:58:48.936Z,2.07
2023-04-29T09:01:16.942Z,2.00
2023-04-29T09:03:48.396Z,2.20
2023-04-29T09:06:16.529Z,2.10
2023-04-29T09:08:44.542Z,1.70
2023-04-29T09:11:14.183Z,1.83
2023-04-29T09:13:42.465Z,2.00
2023-04-29T09:16:12.451Z,4.27
2023-04-29T09:18:44.784Z,2.50
2023-04-29T09:21:19.020Z,1.90
2023-04-29T09:23:48.726Z,2.20
2023-04-29T09:26:18.047Z,2.00
2023-04-29T09:28:47.620Z,1.23
2023-04-29T09:31:15.955Z,0.87
2023-04-29T09:33:54.525Z,1.10
2023-04-29T09:36:42.557Z,0.70
2023-04-29T09:39:13.887Z,2.30
2023-04-29T09:41:45.064Z,1.20
2023-04-29T09:44:12.940Z,1.63
2023-04-29T09:46:40.949Z,1.20
2023-04-29T09:49:24.684Z,1.27
2023-04-29T09:51:56.657Z,1.40
2023-04-29T09:54:24.832Z,2.00
2023-04-29T09:56:54.384Z,1.83
2023-04-29T09:59:22.779Z,2.50
2023-04-29T10:01:51.505Z,1.37
2023-04-29T10:04:20.205Z,1.50
2023-04-29T10:06:51.082Z,1.67
2023-04-29T10:09:19.525Z,1.50
2023-04-29T10:11:47.933Z,4.67
2023-04-29T10:14:18.285Z,1.30
2023-04-29T10:16:50.927Z,1.40
2023-04-29T10:19:27.717Z,1.30
2023-04-29T10:21:56.603Z,2.20
2023-04-29T10:24:24.513Z,0.90
2023-04-29T10:26:52.850Z,0.80
2023-04-29T10:29:22.152Z,3.10
2023-04-29T10:31:50.811Z,1.40
2023-04-29T10:34:18.838Z,1.23
2023-04-29T10:36:47.549Z,1.90
2023-04-29T10:39:21.105Z,1.50
2023-04-29T10:41:49.086Z,1.70
2023-04-29T10:44:17.234Z,1.50
2023-04-29T10:46:47.739Z,1.40
2023-04-29T10:49:15.709Z,1.53
2023-04-29T10:51:44.325Z,1.43
2023-04-29T10:54:14.198Z,1.43
2023-04-29T10:56:43.511Z,1.73
2023-04-29T10:59:13.278Z,4.03
2023-04-29T11:01:50.054Z,1.43
2023-04-29T11:04:18.985Z,1.10
2023-04-29T11:06:48.295Z,2.67
2023-04-29T11:09:19.972Z,2.93
2023-04-29T11:11:50.051Z,1.37
2023-04-29T11:14:23.039Z,1.30
2023-04-29T11:16:54.698Z,1.67
2023-04-29T11:19:23.021Z,1.17
2023-04-29T11:21:55.491Z,1.03
2023-04-29T11:24:23.416Z,1.03
2023-04-29T11:26:51.453Z,1.17
2023-04-29T11:29:19.632Z,3.60
2023-04-29T11:31:47.649Z,3.33
2023-04-29T11:34:17.023Z,1.00
2023-04-29T11:36:47.052Z,2.63
2023-04-29T11:39:15.663Z,3.00
2023-04-29T11:41:43.872Z,0.93
2023-04-29T11:44:12.762Z,1.73
2023-04-29T11:46:40.798Z,1.07
2023-04-29T11:49:09.037Z,1.10
2023-04-29T11:51:38.363Z,0.83
2023-04-29T11:54:08.173Z,1.10
2023-04-29T11:56:38.116Z,0.80
2023-04-29T11:59:08.216Z,1.00
2023-04-29T12:01:37.095Z,0.80
2023-04-29T12:04:07.423Z,1.63
2023-04-29T12:06:35.487Z,0.80
2023-04-29T12:09:05.238Z,1.00
2023-04-29T12:11:33.233Z,1.37
2023-04-29T12:14:03.743Z,3.90
2023-04-29T12:16:32.478Z,1.33
2023-04-29T12:19:00.757Z,0.93
2023-04-29T12:21:28.625Z,0.90
2023-04-29T12:24:00.083Z,0.80
2023-04-29T12:26:31.509Z,1.83
2023-04-29T12:28:59.815Z,1.00
2023-04-29T12:31:34.167Z,2.20
2023-04-29T12:34:02.955Z,2.60
2023-04-29T12:36:31.599Z,0.87
2023-04-29T12:39:00.153Z,1.17
2023-04-29T12:41:39.519Z,1.37
2023-04-29T12:44:07.815Z,1.17
2023-04-29T12:46:37.112Z,3.83
2023-04-29T12:49:05.211Z,1.00
2023-04-29T12:51:33.715Z,0.80
2023-04-29T12:54:01.732Z,1.47
2023-04-29T12:56:29.658Z,2.57
2023-04-29T12:58:58.952Z,4.10
2023-04-29T13:01:27.114Z,1.00
2023-04-29T13:03:55.102Z,1.60
2023-04-29T13:06:23.089Z,0.90
2023-04-29T13:08:51.500Z,1.10
2023-04-29T13:11:20.104Z,1.20
2023-04-29T13:13:48.105Z,1.80
2023-04-29T13:16:17.533Z,2.90
2023-04-29T13:18:53.436Z,3.83
2023-04-29T13:21:32.860Z,3.13
2023-04-29T13:24:02.094Z,1.00
2023-04-29T13:26:30.293Z,2.10
2023-04-29T13:28:58.239Z,1.23
2023-04-29T13:31:28.127Z,1.10
2023-04-29T13:33:56.374Z,1.00
2023-04-29T13:36:24.287Z,3.70
2023-04-29T13:38:55.364Z,1.07
2023-04-29T13:41:26.004Z,6.77
2023-04-29T13:43:58.008Z,1.00
2023-04-29T13:46:28.942Z,1.00
2023-04-29T13:59:37.930Z,0.88
2023-04-29T14:02:21.245Z,1.00
2023-04-29T14:04:40.675Z,2.00
2023-04-29T14:07:08.646Z,1.63
2023-04-29T14:09:36.859Z,0.90
2023-04-29T14:12:05.114Z,0.90
2023-04-29T14:14:33.155Z,1.60
2023-04-29T14:17:02.403Z,0.80
2023-04-29T14:19:30.605Z,0.70
2023-04-29T14:21:58.558Z,2.65
2023-04-29T14:24:26.445Z,2.30
2023-04-29T14:26:54.449Z,1.52
2023-04-29T14:29:22.411Z,1.00
2023-04-29T14:31:50.424Z,2.75
2023-04-29T14:34:20.906Z,1.20
2023-04-29T14:36:48.808Z,2.80
2023-04-29T14:39:16.807Z,0.98
2023-04-29T14:41:44.706Z,1.08
2023-04-29T14:44:12.638Z,1.45
2023-04-29T14:46:40.684Z,2.28
2023-04-29T14:49:08.666Z,1.98
2023-04-29T14:51:38.005Z,1.20
2023-04-29T14:54:05.926Z,2.15
2023-04-29T14:56:33.813Z,1.02
2023-04-29T14:59:01.800Z,1.97
2023-04-29T15:01:32.028Z,1.88
2023-04-29T15:04:01.325Z,1.20
2023-04-29T15:06:29.537Z,1.00
2023-04-29T15:08:58.902Z,1.13
2023-04-29T15:11:27.019Z,1.20
2023-04-29T15:13:54.855Z,1.20
2023-04-29T15:16:22.883Z,1.00
2023-04-29T15:18:50.824Z,1.30
2023-04-29T15:21:18.789Z,1.27
2023-04-29T15:23:46.826Z,2.23
2023-04-29T15:26:16.110Z,6.90
2023-04-29T15:28:45.739Z,1.00
2023-04-29T15:31:14.027Z,1.37
2023-04-29T15:33:41.988Z,2.00
2023-04-29T15:36:10.169Z,1.60
2023-04-29T15:38:38.089Z,1.23
2023-04-29T15:41:06.818Z,1.63
2023-04-29T15:43:36.100Z,2.83
2023-04-29T15:46:04.080Z,1.40
2023-04-29T15:48:32.004Z,1.33
2023-04-29T15:50:59.860Z,1.23
2023-04-29T15:53:27.768Z,1.40
2023-04-29T15:55:55.703Z,1.53
2023-04-29T15:58:23.582Z,2.43
2023-04-29T16:00:53.071Z,1.03
2023-04-29T16:03:21.264Z,1.47
2023-04-29T16:05:50.878Z,2.10
2023-04-29T16:08:18.823Z,2.53
2023-04-29T16:10:46.823Z,1.20
2023-04-29T16:13:14.733Z,1.40
2023-04-29T16:15:42.665Z,1.47
2023-04-29T16:18:12.101Z,1.27
2023-04-29T16:20:39.978Z,1.83
2023-04-29T16:23:07.893Z,1.30
2023-04-29T16:25:35.792Z,1.40
2023-04-29T16:28:03.778Z,1.27
2023-04-29T16:30:31.685Z,3.07
2023-04-29T16:32:59.924Z,3.60
2023-04-29T16:35:31.012Z,2.40
2023-04-29T16:37:59.162Z,4.10
2023-04-29T16:40:27.786Z,1.53
2023-04-29T16:42:57.004Z,1.43
2023-04-29T16:45:25.163Z,2.87
2023-04-29T16:47:53.249Z,1.67
2023-04-29T16:50:21.301Z,2.83
2023-04-29T16:52:50.548Z,1.93
2023-04-29T16:55:18.874Z,1.53
2023-04-29T16:57:46.744Z,3.30
2023-04-29T17:00:15.087Z,1.50
2023-04-29T17:02:45.184Z,1.40
2023-04-29T17:05:13.148Z,1.10
2023-04-29T17:07:41.072Z,5.77
2023-04-29T17:10:11.438Z,2.17
2023-04-29T17:12:39.424Z,3.50
2023-04-29T17:15:08.426Z,2.08
2023-04-29T17:17:36.640Z,2.22
2023-04-29T17:20:04.985Z,1.85
2023-04-29T17:22:33.632Z,2.60
2023-04-29T17:25:01.742Z,28.65
2023-04-29T17:27:31.182Z,24.33
2023-04-29T17:29:59.091Z,8.77
2023-04-29T17:32:29.636Z,7.13
2023-04-29T17:34:57.761Z,6.82
2023-04-29T17:37:25.985Z,3.88
2023-04-29T17:39:54.174Z,2.85
2023-04-29T17:42:22.402Z,2.28
2023-04-29T17:44:51.683Z,2.78
2023-04-29T17:47:21.163Z,2.15
2023-04-29T17:49:49.270Z,2.97
2023-04-29T17:52:17.590Z,2.58
2023-04-29T17:54:45.488Z,2.47
2023-04-29T17:57:13.356Z,3.63
2023-04-29T17:59:41.324Z,4.75
2023-04-29T18:02:10.844Z,2.05
2023-04-29T18:04:40.606Z,3.13
2023-04-29T18:07:08.474Z,4.40
2023-04-29T18:09:36.343Z,1.77
2023-04-29T18:12:04.373Z,2.23
2023-04-29T18:14:32.278Z,2.10
2023-04-29T18:17:01.154Z,2.10
2023-04-29T18:19:30.739Z,2.53
2023-04-29T18:22:01.353Z,5.50
2023-04-29T18:24:29.349Z,3.70
2023-04-29T18:26:57.447Z,2.67
2023-04-29T18:29:25.369Z,2.77
2023-04-29T18:31:54.725Z,2.53
2023-04-29T18:34:22.978Z,3.60
2023-04-29T18:36:53.024Z,3.00
2023-04-29T18:39:20.981Z,3.00
2023-04-29T18:41:49.220Z,6.17
2023-04-29T18:44:17.178Z,2.70
2023-04-29T18:46:45.199Z,3.00
2023-04-29T18:49:18.109Z,3.40
2023-04-29T18:51:46.898Z,8.83
2023-04-29T18:54:16.999Z,2.47
2023-04-29T18:56:46.540Z,3.10
2023-04-29T18:59:18.905Z,1.87
2023-04-29T19:01:47.080Z,2.73
2023-04-29T19:04:15.210Z,3.73
2023-04-29T19:06:43.392Z,2.53
2023-04-29T19:09:11.657Z,2.93
2023-04-29T19:11:40.928Z,12.17
2023-04-29T19:14:08.835Z,16.00
2023-04-29T19:16:37.460Z,27.63
2023-04-29T19:19:05.464Z,31.53
2023-04-29T19:21:33.565Z,31.30
2023-04-29T19:24:01.439Z,33.40
2023-04-29T19:26:30.282Z,36.70
2023-04-29T19:29:00.944Z,40.23
2023-04-29T19:31:28.890Z,38.40
2023-04-29T19:33:56.805Z,36.07
2023-04-29T19:36:24.707Z,36.03
2023-04-29T19:38:52.631Z,36.97
2023-04-29T19:41:21.644Z,39.93
2023-04-29T19:43:49.558Z,40.83
2023-04-29T19:46:18.870Z,36.00
2023-04-29T19:48:46.862Z,41.23
2023-04-29T19:51:14.796Z,37.10
2023-04-29T19:53:43.357Z,38.07
2023-04-29T19:56:11.340Z,46.60
2023-04-29T19:58:39.334Z,38.80
2023-04-29T20:01:07.275Z,43.83
2023-04-29T20:03:39.277Z,44.73
2023-04-29T20:06:08.832Z,39.80
2023-04-29T20:08:36.757Z,45.37
2023-04-29T20:11:04.977Z,45.83
2023-04-29T20:13:32.864Z,43.87
2023-04-29T20:16:00.761Z,47.83
2023-04-29T20:18:28.763Z,46.60
2023-04-29T20:20:58.103Z,46.53
2023-04-29T20:23:26.268Z,48.53
2023-04-29T20:25:54.249Z,45.03
2023-04-29T20:28:22.142Z,47.97
2023-04-29T20:30:50.089Z,45.87
2023-04-29T20:33:18.081Z,50.87
2023-04-29T20:35:45.968Z,49.27
2023-04-29T20:38:15.249Z,48.77
2023-04-29T20:40:43.719Z,54.47
2023-04-29T20:43:11.638Z,63.60
2023-04-29T20:45:39.547Z,54.83
2023-04-29T20:48:07.953Z,54.90
2023-04-29T20:50:36.062Z,52.57
2023-04-29T20:53:04.067Z,56.77
2023-04-29T20:55:33.347Z,53.67
2023-04-29T20:58:01.278Z,67.40
2023-04-29T21:00:29.160Z,57.20
2023-04-29T21:02:57.090Z,60.33
2023-04-29T21:05:24.995Z,53.67
2023-04-29T21:07:52.886Z,55.73
2023-04-29T21:10:21.102Z,61.03
2023-04-29T21:12:50.401Z,58.27
2023-04-29T21:15:18.356Z,55.47
2023-04-29T21:17:46.545Z,60.57
2023-04-29T21:20:14.610Z,56.90
2023-04-29T21:22:42.487Z,57.30
2023-04-29T21:25:10.635Z,64.40
2023-04-29T21:27:38.601Z,59.50
2023-04-29T21:30:09.127Z,59.07
2023-04-29T21:32:37.058Z,64.43
2023-04-29T21:35:05.400Z,56.57
2023-04-29T21:37:33.936Z,60.63
2023-04-29T21:40:04.219Z,63.37
2023-04-29T21:42:32.424Z,66.13
2023-04-29T21:45:00.881Z,63.20
2023-04-29T21:47:30.494Z,70.87
2023-04-29T21:49:58.473Z,66.40
2023-04-29T21:52:26.448Z,63.40
2023-04-29T21:54:54.342Z,68.43
2023-04-29T21:57:29.223Z,66.73
2023-04-29T22:00:00.135Z,71.50
2023-04-29T22:02:38.026Z,69.23
2023-04-29T22:05:08.272Z,66.40
2023-04-29T22:07:36.181Z,68.77
2023-04-29T22:10:04.194Z,69.80
2023-04-29T22:12:32.228Z,70.87
2023-04-29T22:15:00.834Z,67.77
2023-04-29T22:17:28.801Z,71.23
2023-04-29T22:19:56.834Z,69.77
2023-04-29T22:22:26.167Z,74.73
2023-04-29T22:24:54.119Z,74.37
2023-04-29T22:27:22.163Z,72.90
2023-04-29T22:29:50.175Z,81.50
2023-04-29T22:32:18.484Z,76.17
2023-04-29T22:34:46.422Z,81.60
2023-04-29T22:37:14.600Z,72.13
2023-04-29T22:39:43.900Z,74.40
2023-04-29T22:42:11.803Z,78.00
2023-04-29T22:44:39.768Z,73.57
2023-04-29T22:47:07.758Z,74.60
2023-04-29T22:49:35.668Z,72.83
2023-04-29T22:52:03.549Z,76.80
2023-04-29T22:54:31.513Z,71.53
2023-04-29T22:57:00.859Z,74.53
2023-04-29T22:59:28.763Z,75.17
2023-04-29T23:01:56.651Z,70.67
2023-04-29T23:04:25.171Z,70.93
2023-04-29T23:06:53.452Z,72.10
2023-04-29T23:09:21.292Z,69.23
2023-04-29T23:11:49.135Z,71.97
2023-04-29T23:14:18.413Z,70.50
2023-04-29T23:16:46.339Z,70.87
2023-04-29T23:19:14.248Z,72.63
2023-04-29T23:21:42.128Z,67.80
2023-04-29T23:24:09.975Z,67.20
2023-04-29T23:26:37.864Z,67.30
2023-04-29T23:29:06.187Z,73.33
2023-04-29T23:31:35.509Z,67.03
2023-04-29T23:34:03.877Z,67.70
2023-04-29T23:36:31.768Z,66.00
2023-04-29T23:38:59.690Z,72.10
2023-04-29T23:41:27.575Z,62.93
2023-04-29T23:43:56.449Z,69.70
2023-04-29T23:46:25.489Z,67.93
2023-04-29T23:48:54.786Z,65.03
2023-04-29T23:51:22.676Z,63.10
2023-04-29T23:53:50.696Z,67.97
2023-04-29T23:56:18.552Z,65.70
2023-04-29T23:58:46.427Z,63.03
